Krugersdorp, South Africa
Current Conditions -  °F | °C
As of 9:00 AM on Friday 31 Oct 2014 (Local Time) from FALA Reporting Station
Clear Clear  
Wind Chill: 79°   Ceiling: Unl
Heat Index: 79°   Visibility: 6mi
Dew Point: 46°   Wind: 10mph
Humidity: 32%   Direction: 360°N
Pressure: 30.21"   Gusts: NA
Location:  26.09°S, 27.77°E
Report Text: FALA 310700Z 36009KT 300V040 CAVOK 26/08 Q1023 NOSIG
Loading
Personal Weather Stations






























Interactive Weather Map
Tropical Storm Tracking
New forecast layout! Learn more

10-Day Weather Forecast

Advertisements
Track Severe Weather on mobile